createdAt,value
2018-11-11T00:00:12.952Z,11.57
2018-11-11T00:02:42.170Z,11.13
2018-11-11T00:05:11.826Z,11.97
2018-11-11T00:07:41.252Z,11.40
2018-11-11T00:10:10.486Z,11.93
2018-11-11T00:12:40.018Z,11.83
2018-11-11T00:15:11.479Z,11.23
2018-11-11T00:17:41.552Z,11.73
2018-11-11T00:20:11.738Z,11.00
2018-11-11T00:22:41.352Z,10.77
2018-11-11T00:25:10.504Z,10.73
2018-11-11T00:27:42.285Z,11.10
2018-11-11T00:30:15.519Z,11.67
2018-11-11T00:32:44.813Z,10.60
2018-11-11T00:35:14.048Z,11.17
2018-11-11T00:37:43.175Z,10.53
2018-11-11T00:40:13.365Z,11.10
2018-11-11T00:42:42.551Z,11.83
2018-11-11T00:45:12.266Z,11.47
2018-11-11T00:47:41.401Z,11.03
2018-11-11T00:50:11.161Z,11.03
2018-11-11T00:52:40.337Z,10.53
2018-11-11T00:55:14.375Z,11.03
2018-11-11T00:57:43.775Z,10.60
2018-11-11T01:00:16.435Z,11.27
2018-11-11T01:05:42.981Z,11.47
2018-11-11T01:08:12.130Z,10.93
2018-11-11T01:10:42.163Z,11.20
2018-11-11T01:13:11.446Z,11.20
2018-11-11T01:15:40.713Z,10.70
2018-11-11T01:18:09.860Z,10.70
2018-11-11T01:20:38.953Z,11.23
2018-11-11T01:23:08.067Z,10.10
2018-11-11T01:25:37.185Z,11.03
2018-11-11T01:28:06.384Z,11.07
2018-11-11T01:30:35.497Z,10.30
2018-11-11T01:33:04.738Z,10.90
2018-11-11T01:35:33.932Z,10.60
2018-11-11T01:38:03.218Z,10.87
2018-11-11T01:40:32.590Z,11.53
2018-11-11T01:43:01.638Z,11.93
2018-11-11T01:45:30.853Z,11.50
2018-11-11T01:48:00.081Z,12.63
2018-11-11T01:50:29.301Z,12.83
2018-11-11T01:52:58.979Z,12.33
2018-11-11T01:55:28.040Z,12.80
2018-11-11T01:57:57.259Z,12.37
2018-11-11T02:00:26.354Z,12.80
2018-11-11T02:02:55.580Z,12.37
2018-11-11T02:05:24.631Z,12.53
2018-11-11T02:07:53.694Z,13.23
2018-11-11T02:10:22.777Z,12.07
2018-11-11T02:12:52.035Z,13.07
2018-11-11T02:15:21.103Z,14.07
2018-11-11T02:17:50.142Z,13.60
2018-11-11T02:20:20.128Z,13.70
2018-11-11T02:22:50.430Z,12.93
2018-11-11T02:25:19.560Z,13.30
2018-11-11T02:27:48.628Z,13.63
2018-11-11T02:30:19.055Z,12.53
2018-11-11T02:32:48.273Z,14.10
2018-11-11T02:35:20.671Z,13.80
2018-11-11T02:37:50.091Z,14.60
2018-11-11T02:40:20.002Z,13.57
2018-11-11T02:42:49.574Z,13.03
2018-11-11T02:45:19.572Z,13.77
2018-11-11T02:47:48.709Z,13.97
2018-11-11T02:50:19.057Z,13.00
2018-11-11T02:52:48.374Z,13.93
2018-11-11T02:55:17.906Z,13.60
2018-11-11T02:57:47.429Z,14.20
2018-11-11T03:00:18.665Z,14.80
2018-11-11T03:02:48.018Z,14.47
2018-11-11T03:05:17.893Z,14.37
2018-11-11T03:07:47.067Z,13.60
2018-11-11T03:10:16.941Z,14.63
2018-11-11T03:12:46.857Z,14.33
2018-11-11T03:15:16.536Z,13.90
2018-11-11T03:17:48.769Z,14.47
2018-11-11T03:20:18.170Z,13.47
2018-11-11T03:22:47.290Z,14.30
2018-11-11T03:25:18.348Z,15.53
2018-11-11T03:27:47.792Z,13.33
2018-11-11T03:30:17.777Z,14.03
2018-11-11T03:32:47.120Z,14.60
2018-11-11T03:35:16.160Z,14.47
2018-11-11T03:37:45.867Z,14.20
2018-11-11T03:40:17.585Z,15.80
2018-11-11T03:42:47.127Z,15.47
2018-11-11T03:45:17.550Z,14.33
2018-11-11T03:47:47.647Z,14.63
2018-11-11T03:50:16.765Z,15.57
2018-11-11T03:52:45.994Z,14.80
2018-11-11T03:55:15.196Z,15.87
2018-11-11T03:57:44.311Z,15.70
2018-11-11T04:00:17.522Z,15.33
2018-11-11T04:02:46.957Z,15.13
2018-11-11T04:05:17.161Z,15.97
2018-11-11T04:07:46.520Z,16.60
2018-11-11T04:10:17.121Z,16.83
2018-11-11T04:12:46.605Z,15.33
2018-11-11T04:15:16.988Z,14.90
2018-11-11T04:17:46.447Z,15.73
2018-11-11T04:20:17.720Z,14.57
2018-11-11T04:22:46.872Z,15.37
2018-11-11T04:25:16.842Z,15.20
2018-11-11T04:27:45.897Z,16.00
2018-11-11T04:30:15.703Z,15.00
2018-11-11T04:32:44.805Z,15.77
2018-11-11T04:35:14.102Z,15.43
2018-11-11T04:37:43.257Z,15.70
2018-11-11T04:40:13.221Z,15.03
2018-11-11T04:42:46.739Z,16.53
2018-11-11T04:45:16.822Z,15.63
2018-11-11T04:47:46.575Z,14.93
2018-11-11T04:50:16.793Z,16.73
2018-11-11T04:52:46.506Z,15.17
2018-11-11T04:55:15.607Z,15.30
2018-11-11T04:57:44.758Z,16.97
2018-11-11T05:00:14.755Z,16.27
2018-11-11T05:02:43.916Z,15.97
2018-11-11T05:05:13.794Z,15.40
2018-11-11T05:07:42.919Z,15.40
2018-11-11T05:10:12.465Z,15.23
2018-11-11T05:12:41.609Z,15.00
2018-11-11T05:15:11.674Z,16.37
2018-11-11T05:17:40.691Z,16.40
2018-11-11T05:20:10.735Z,16.23
2018-11-11T05:22:39.916Z,14.73
2018-11-11T05:25:11.406Z,15.33
2018-11-11T05:27:40.761Z,14.07
2018-11-11T05:30:10.817Z,14.90
2018-11-11T05:32:39.988Z,14.40
2018-11-11T05:35:09.953Z,15.53
2018-11-11T05:37:39.211Z,15.43
2018-11-11T05:40:09.084Z,14.87
2018-11-11T05:42:38.287Z,14.53
2018-11-11T05:45:08.280Z,15.53
2018-11-11T05:47:37.395Z,14.90
2018-11-11T05:50:08.195Z,14.13
2018-11-11T05:52:37.458Z,13.77
2018-11-11T05:55:06.835Z,13.73
2018-11-11T05:57:36.063Z,13.27
2018-11-11T06:00:06.563Z,13.53
2018-11-11T06:02:35.916Z,13.50
2018-11-11T06:05:06.064Z,13.43
2018-11-11T06:07:36.016Z,14.00
2018-11-11T06:10:06.223Z,13.53
2018-11-11T06:12:35.353Z,13.40
2018-11-11T06:15:05.037Z,13.80
2018-11-11T06:17:34.098Z,12.67
2018-11-11T06:20:03.212Z,13.07
2018-11-11T06:22:32.421Z,12.13
2018-11-11T06:25:01.509Z,12.13
2018-11-11T06:27:30.595Z,12.60
2018-11-11T06:29:59.677Z,12.70
2018-11-11T06:32:28.770Z,11.90
2018-11-11T06:34:57.956Z,12.50
2018-11-11T06:37:27.156Z,11.87
2018-11-11T06:39:56.215Z,10.80
2018-11-11T06:42:25.309Z,12.33
2018-11-11T06:44:54.338Z,13.63
2018-11-11T06:47:23.365Z,12.33
2018-11-11T06:49:52.461Z,12.30
2018-11-11T06:52:21.645Z,12.53
2018-11-11T06:54:51.981Z,11.17
2018-11-11T06:57:21.406Z,12.10
2018-11-11T06:59:50.507Z,12.57
2018-11-11T07:02:19.720Z,11.63
2018-11-11T07:04:48.968Z,11.10
2018-11-11T07:07:18.303Z,10.93
2018-11-11T07:09:47.510Z,10.37
2018-11-11T07:12:16.852Z,11.27
2018-11-11T07:14:45.964Z,10.40
2018-11-11T07:17:15.068Z,10.47
2018-11-11T07:19:44.224Z,10.33
2018-11-11T07:22:13.462Z,9.90
2018-11-11T07:24:42.690Z,11.27
2018-11-11T07:27:11.951Z,9.97
2018-11-11T07:29:41.294Z,10.97
2018-11-11T07:32:10.584Z,12.57
2018-11-11T07:34:39.811Z,10.90
2018-11-11T07:37:10.029Z,10.10
2018-11-11T07:39:39.223Z,9.77
2018-11-11T07:42:08.567Z,10.83
2018-11-11T07:44:37.745Z,10.77
2018-11-11T07:47:07.139Z,9.07
2018-11-11T07:49:36.431Z,10.57
2018-11-11T07:52:06.057Z,10.20
2018-11-11T07:54:35.236Z,16.00
2018-11-11T07:57:04.441Z,9.87
2018-11-11T07:59:33.715Z,9.83
2018-11-11T08:02:03.005Z,10.33
2018-11-11T08:04:32.219Z,9.13
2018-11-11T08:07:01.322Z,8.30
2018-11-11T08:09:30.512Z,8.87
2018-11-11T08:12:00.947Z,9.43
2018-11-11T08:14:30.282Z,8.37
2018-11-11T08:16:59.433Z,9.30
2018-11-11T08:19:28.593Z,8.93
2018-11-11T08:21:57.654Z,9.63
2018-11-11T08:24:26.795Z,9.13
2018-11-11T08:26:55.905Z,9.47
2018-11-11T08:29:25.043Z,8.53
2018-11-11T08:31:54.153Z,8.90
2018-11-11T08:34:23.190Z,7.93
2018-11-11T08:36:52.342Z,8.87
2018-11-11T08:39:21.523Z,8.37
2018-11-11T08:41:50.682Z,10.20
2018-11-11T08:44:19.898Z,9.13
2018-11-11T08:46:48.941Z,8.30
2018-11-11T08:49:18.113Z,8.57
2018-11-11T08:51:47.183Z,7.93
2018-11-11T08:54:16.255Z,8.50
2018-11-11T08:56:45.382Z,9.17
2018-11-11T08:59:14.486Z,7.63
2018-11-11T09:01:43.630Z,7.77
2018-11-11T09:04:12.776Z,7.80
2018-11-11T09:06:41.849Z,8.23
2018-11-11T09:09:11.024Z,9.57
2018-11-11T09:11:40.520Z,8.63
2018-11-11T09:14:09.618Z,7.80
2018-11-11T09:16:38.781Z,7.73
2018-11-11T09:19:07.884Z,7.87
2018-11-11T09:21:40.061Z,7.50
2018-11-11T09:24:09.456Z,8.67
2018-11-11T09:26:38.607Z,8.60
2018-11-11T09:29:08.100Z,8.00
2018-11-11T09:31:37.231Z,8.70
2018-11-11T09:34:06.416Z,8.40
2018-11-11T09:36:35.505Z,8.60
2018-11-11T09:39:07.458Z,9.37
2018-11-11T09:41:36.433Z,7.70
2018-11-11T09:44:05.802Z,7.87
2018-11-11T09:46:34.867Z,7.50
2018-11-11T09:49:03.974Z,8.77
2018-11-11T09:51:33.082Z,8.17
2018-11-11T09:54:02.285Z,8.60
2018-11-11T09:56:31.439Z,7.93
2018-11-11T09:59:00.439Z,9.07
2018-11-11T10:01:29.834Z,9.20
2018-11-11T10:05:05.251Z,8.47
2018-11-11T10:09:41.576Z,8.20
2018-11-11T10:12:26.770Z,7.90
2018-11-11T10:15:01.329Z,9.20
2018-11-11T10:17:35.713Z,7.77
2018-11-11T10:20:13.239Z,7.70
2018-11-11T10:22:47.645Z,7.50
2018-11-11T10:25:25.491Z,8.10
2018-11-11T10:28:00.095Z,9.40
2018-11-11T10:31:41.561Z,8.03
2018-11-11T10:34:15.953Z,9.40
2018-11-11T10:36:51.039Z,9.83
2018-11-11T10:39:24.426Z,6.90
2018-11-11T10:44:04.702Z,6.83
2018-11-11T10:46:43.230Z,6.53
2018-11-11T10:49:15.565Z,6.60
2018-11-11T10:51:44.712Z,7.50
2018-11-11T10:54:14.230Z,7.07
2018-11-11T10:56:43.585Z,6.37
2018-11-11T10:59:12.855Z,7.17
2018-11-11T11:01:47.358Z,5.80
2018-11-11T11:04:16.631Z,6.13
2018-11-11T11:06:51.101Z,6.70
2018-11-11T11:09:20.208Z,6.17
2018-11-11T11:11:49.321Z,7.00
2018-11-11T11:14:18.463Z,6.33
2018-11-11T11:16:47.531Z,6.70
2018-11-11T11:19:16.678Z,6.10
2018-11-11T11:21:45.714Z,6.43
2018-11-11T11:24:14.797Z,6.00
2018-11-11T11:26:43.912Z,6.20
2018-11-11T11:29:13.140Z,5.57
2018-11-11T11:31:42.322Z,6.07
2018-11-11T11:34:11.348Z,5.83
2018-11-11T11:36:40.409Z,5.97
2018-11-11T11:39:10.039Z,5.83
2018-11-11T11:41:39.170Z,5.73
2018-11-11T11:44:08.582Z,5.93
2018-11-11T11:46:37.648Z,5.67
2018-11-11T11:49:08.250Z,6.13
2018-11-11T11:51:37.928Z,5.80
2018-11-11T11:54:07.016Z,5.17
2018-11-11T11:56:36.268Z,5.73
2018-11-11T11:59:05.527Z,5.73
2018-11-11T12:01:34.756Z,4.80
2018-11-11T12:04:03.890Z,6.47
2018-11-11T12:06:32.987Z,5.80
2018-11-11T12:09:02.238Z,5.13
2018-11-11T12:11:31.298Z,4.90
2018-11-11T12:14:00.476Z,4.60
2018-11-11T12:16:29.674Z,4.40
2018-11-11T12:18:59.110Z,4.37
2018-11-11T12:21:28.368Z,4.20
2018-11-11T12:23:57.512Z,4.90
2018-11-11T12:26:26.618Z,4.57
2018-11-11T12:28:55.734Z,4.00
2018-11-11T12:31:24.869Z,4.50
2018-11-11T12:33:54.024Z,4.27
2018-11-11T12:36:23.194Z,4.50
2018-11-11T12:38:52.333Z,3.20
2018-11-11T12:41:21.537Z,3.40
2018-11-11T12:43:50.661Z,3.47
2018-11-11T12:46:19.664Z,3.70
2018-11-11T12:48:48.860Z,3.57
2018-11-11T12:51:17.923Z,4.17
2018-11-11T12:53:46.936Z,3.70
2018-11-11T12:56:16.076Z,3.30
2018-11-11T12:58:45.131Z,3.63
2018-11-11T13:01:14.176Z,3.77
2018-11-11T13:03:43.221Z,3.40
2018-11-11T13:06:12.435Z,3.50
2018-11-11T13:08:41.523Z,3.23
2018-11-11T13:11:10.700Z,3.13
2018-11-11T13:13:42.744Z,3.10
2018-11-11T13:16:12.062Z,3.67
2018-11-11T13:18:41.190Z,3.90
2018-11-11T13:21:10.364Z,3.90
2018-11-11T13:23:39.571Z,3.53
2018-11-11T13:26:08.696Z,3.07
2018-11-11T13:28:37.828Z,3.63
2018-11-11T13:31:07.244Z,3.07
2018-11-11T13:33:36.474Z,3.57
2018-11-11T13:36:05.701Z,3.23
2018-11-11T13:38:35.052Z,4.20
2018-11-11T13:41:04.152Z,3.80
2018-11-11T13:43:33.269Z,3.60
2018-11-11T13:46:02.415Z,3.50
2018-11-11T13:48:31.449Z,3.87
2018-11-11T13:51:00.531Z,3.33
2018-11-11T13:53:29.575Z,3.83
2018-11-11T13:55:59.416Z,3.37
2018-11-11T13:58:28.631Z,4.30
2018-11-11T14:00:57.810Z,4.13
2018-11-11T14:03:26.949Z,3.23
2018-11-11T14:05:56.050Z,4.10
2018-11-11T14:08:25.365Z,2.50
2018-11-11T14:10:54.529Z,1.97
2018-11-11T14:13:23.662Z,2.43
2018-11-11T14:15:52.786Z,2.07
2018-11-11T14:18:21.924Z,2.40
2018-11-11T14:20:51.097Z,2.33
2018-11-11T14:23:20.188Z,2.50
2018-11-11T14:25:49.360Z,2.63
2018-11-11T14:28:18.494Z,2.80
2018-11-11T14:30:47.560Z,2.93
2018-11-11T14:33:16.757Z,2.83
2018-11-11T14:35:45.937Z,2.53
2018-11-11T14:38:15.149Z,2.30
2018-11-11T14:40:45.210Z,2.50
2018-11-11T14:43:14.425Z,2.60
2018-11-11T14:45:43.512Z,3.17
2018-11-11T14:48:12.603Z,3.17
2018-11-11T14:50:41.668Z,3.10
2018-11-11T14:53:10.745Z,3.40
2018-11-11T14:55:39.825Z,2.90
2018-11-11T14:58:09.228Z,3.07
2018-11-11T15:00:38.401Z,2.90
2018-11-11T15:03:11.725Z,2.97
2018-11-11T15:05:41.023Z,2.93
2018-11-11T15:08:10.184Z,2.90
2018-11-11T15:10:39.767Z,2.57
2018-11-11T15:13:10.668Z,2.60
2018-11-11T15:15:39.847Z,2.70
2018-11-11T15:18:09.348Z,2.40
2018-11-11T15:20:38.967Z,2.73
2018-11-11T15:23:08.612Z,2.50
2018-11-11T15:25:37.849Z,2.57
2018-11-11T15:28:07.423Z,2.70
2018-11-11T15:30:37.612Z,2.33
2018-11-11T15:33:06.972Z,2.10
2018-11-11T15:35:36.210Z,2.27
2018-11-11T15:38:05.944Z,2.10
2018-11-11T15:40:36.449Z,1.90
2018-11-11T15:43:06.018Z,1.80
2018-11-11T15:45:35.595Z,2.00
2018-11-11T15:48:05.268Z,2.33
2018-11-11T15:50:35.173Z,2.57
2018-11-11T15:53:06.359Z,2.77
2018-11-11T15:55:36.720Z,3.27
2018-11-11T15:58:06.157Z,3.07
2018-11-11T16:00:37.747Z,2.63
2018-11-11T16:03:07.020Z,3.87
2018-11-11T16:05:36.138Z,3.10
2018-11-11T16:08:05.321Z,2.77
2018-11-11T16:10:34.979Z,2.60
2018-11-11T16:13:04.259Z,2.83
2018-11-11T16:15:34.982Z,2.43
2018-11-11T16:18:06.774Z,2.57
2018-11-11T16:20:36.032Z,2.20
2018-11-11T16:23:06.155Z,2.60
2018-11-11T16:25:35.494Z,2.43
2018-11-11T16:28:04.600Z,2.37
2018-11-11T16:30:35.003Z,3.10
2018-11-11T16:33:04.285Z,3.00
2018-11-11T16:35:33.564Z,2.97
2018-11-11T16:38:03.057Z,2.53
2018-11-11T16:40:33.719Z,2.80
2018-11-11T16:43:03.016Z,3.17
2018-11-11T16:45:33.245Z,2.80
2018-11-11T16:48:02.460Z,3.10
2018-11-11T16:50:32.768Z,2.77
2018-11-11T16:53:06.686Z,2.93
2018-11-11T16:55:36.471Z,3.10
2018-11-11T16:58:05.694Z,3.07
2018-11-11T17:00:36.267Z,3.03
2018-11-11T17:03:06.300Z,2.80
2018-11-11T17:05:36.463Z,3.37
2018-11-11T17:08:06.402Z,3.23
2018-11-11T17:10:36.651Z,3.23
2018-11-11T17:13:07.476Z,3.83
2018-11-11T17:15:36.617Z,3.43
2018-11-11T17:18:05.897Z,3.10
2018-11-11T17:20:35.124Z,3.20
2018-11-11T17:23:05.797Z,3.13
2018-11-11T17:25:34.925Z,3.50
2018-11-11T17:28:04.024Z,3.40
2018-11-11T17:30:33.355Z,3.57
2018-11-11T17:33:02.823Z,3.53
2018-11-11T17:35:31.898Z,3.33
2018-11-11T17:38:00.956Z,3.33
2018-11-11T17:40:30.720Z,3.20
2018-11-11T17:43:00.488Z,3.30
2018-11-11T17:45:29.679Z,4.03
2018-11-11T17:47:58.771Z,3.87
2018-11-11T17:50:32.071Z,3.43
2018-11-11T17:53:02.349Z,3.17
2018-11-11T17:55:31.828Z,3.20
2018-11-11T17:58:00.942Z,3.60
2018-11-11T18:00:30.902Z,3.60
2018-11-11T18:03:00.720Z,4.10
2018-11-11T18:05:30.627Z,3.27
2018-11-11T18:08:00.084Z,7.27
2018-11-11T18:10:29.355Z,8.67
2018-11-11T18:12:58.482Z,5.80
2018-11-11T18:15:28.907Z,4.83
2018-11-11T18:17:58.022Z,7.70
2018-11-11T18:20:28.516Z,8.63
2018-11-11T18:22:58.565Z,7.00
2018-11-11T18:25:27.607Z,4.37
2018-11-11T18:27:56.809Z,4.13
2018-11-11T18:30:29.741Z,4.43
2018-11-11T18:32:58.860Z,5.03
2018-11-11T18:35:28.002Z,4.20
2018-11-11T18:37:57.198Z,4.07
2018-11-11T18:40:27.473Z,4.57
2018-11-11T18:42:56.722Z,4.03
2018-11-11T18:45:27.130Z,3.80
2018-11-11T18:47:56.341Z,3.73
2018-11-11T18:50:27.775Z,3.40
2018-11-11T18:52:56.874Z,3.17
2018-11-11T18:55:25.889Z,2.80
2018-11-11T18:57:55.049Z,7.87
2018-11-11T19:00:25.392Z,4.03
2018-11-11T19:02:55.423Z,2.90
2018-11-11T19:05:25.042Z,3.73
2018-11-11T19:07:54.412Z,3.13
2018-11-11T19:10:24.888Z,3.30
2018-11-11T19:12:55.259Z,3.17
2018-11-11T19:15:24.424Z,2.57
2018-11-11T19:17:54.033Z,2.80
2018-11-11T19:20:24.255Z,2.37
2018-11-11T19:22:53.363Z,2.90
2018-11-11T19:25:23.877Z,2.80
2018-11-11T19:27:53.820Z,2.80
2018-11-11T19:30:24.345Z,3.20
2018-11-11T19:32:53.864Z,3.33
2018-11-11T19:35:23.695Z,3.43
2018-11-11T19:37:54.155Z,2.60
2018-11-11T19:40:24.684Z,2.83
2018-11-11T19:42:54.725Z,2.67
2018-11-11T19:45:25.259Z,2.43
2018-11-11T19:47:54.477Z,2.20
2018-11-11T19:50:24.498Z,2.30
2018-11-11T19:52:54.557Z,2.17
2018-11-11T19:55:23.974Z,2.47
2018-11-11T19:57:53.151Z,2.03
2018-11-11T20:00:27.896Z,2.17
2018-11-11T20:02:57.614Z,2.27
2018-11-11T20:05:26.781Z,1.60
2018-11-11T20:07:56.988Z,2.97
2018-11-11T20:10:26.955Z,2.00
2018-11-11T20:12:56.235Z,12.50
2018-11-11T20:15:28.574Z,2.70
2018-11-11T20:18:00.876Z,3.43
2018-11-11T20:20:32.844Z,2.13
2018-11-11T20:23:01.997Z,2.37
2018-11-11T20:25:31.097Z,2.50
2018-11-11T20:28:00.190Z,2.27
2018-11-11T20:30:30.477Z,2.23
2018-11-11T20:32:59.792Z,2.73
2018-11-11T20:35:30.075Z,2.53
2018-11-11T20:37:59.135Z,3.03
2018-11-11T20:40:28.576Z,2.97
2018-11-11T20:42:58.397Z,2.97
2018-11-11T20:45:29.457Z,2.57
2018-11-11T20:47:58.656Z,3.30
2018-11-11T20:50:28.655Z,2.57
2018-11-11T20:53:01.185Z,2.83
2018-11-11T20:55:30.435Z,2.93
2018-11-11T20:57:59.704Z,2.37
2018-11-11T21:00:36.767Z,2.67
2018-11-11T21:03:06.620Z,3.20
2018-11-11T21:05:35.761Z,2.67
2018-11-11T21:08:05.141Z,2.73
2018-11-11T21:10:34.296Z,2.57
2018-11-11T21:13:03.545Z,2.57
2018-11-11T21:15:32.799Z,3.00
2018-11-11T21:18:01.915Z,2.70
2018-11-11T21:20:32.337Z,3.30
2018-11-11T21:23:01.480Z,2.60
2018-11-11T21:25:30.715Z,2.90
2018-11-11T21:27:59.817Z,2.80
2018-11-11T21:30:30.108Z,2.93
2018-11-11T21:32:59.345Z,3.10
2018-11-11T21:35:28.539Z,3.50
2018-11-11T21:37:57.765Z,3.43
2018-11-11T21:40:27.417Z,3.13
2018-11-11T21:42:56.940Z,3.70
2018-11-11T21:45:27.019Z,4.17
2018-11-11T21:47:56.365Z,3.80
2018-11-11T21:50:26.497Z,3.80
2018-11-11T21:53:32.027Z,4.00
2018-11-11T21:56:01.534Z,4.73
2018-11-11T21:58:30.709Z,4.30
2018-11-11T22:00:59.907Z,4.40
2018-11-11T22:03:28.996Z,3.67
2018-11-11T22:05:58.058Z,4.27
2018-11-11T22:08:27.255Z,4.47
2018-11-11T22:10:56.518Z,4.43
2018-11-11T22:13:25.558Z,3.77
2018-11-11T22:15:54.738Z,4.40
2018-11-11T22:18:23.752Z,4.93
2018-11-11T22:20:53.204Z,5.00
2018-11-11T22:23:22.436Z,4.40
2018-11-11T22:25:51.667Z,4.73
2018-11-11T22:28:20.868Z,4.63
2018-11-11T22:30:49.973Z,4.70
2018-11-11T22:33:19.121Z,4.93
2018-11-11T22:35:48.467Z,5.67
2018-11-11T22:38:17.844Z,5.30
2018-11-11T22:40:47.083Z,4.63
2018-11-11T22:43:16.318Z,4.70
2018-11-11T22:45:48.487Z,5.90
2018-11-11T22:48:18.074Z,5.50
2018-11-11T22:50:47.431Z,5.47
2018-11-11T22:53:16.753Z,5.53
2018-11-11T22:55:45.931Z,5.30
2018-11-11T22:58:15.321Z,5.10
2018-11-11T23:00:49.870Z,5.43
2018-11-11T23:03:18.981Z,5.00
2018-11-11T23:05:48.069Z,5.37
2018-11-11T23:08:17.225Z,4.97
2018-11-11T23:10:46.369Z,5.63
2018-11-11T23:13:15.463Z,5.47
2018-11-11T23:15:44.712Z,6.20
2018-11-11T23:18:13.805Z,6.37
2018-11-11T23:20:42.930Z,6.53
2018-11-11T23:23:12.056Z,6.83
2018-11-11T23:25:41.171Z,6.43
2018-11-11T23:28:11.063Z,7.57
2018-11-11T23:30:40.289Z,7.73
2018-11-11T23:33:09.441Z,7.23
2018-11-11T23:35:38.527Z,7.67
2018-11-11T23:38:07.570Z,7.50
2018-11-11T23:40:36.750Z,7.17
2018-11-11T23:43:05.896Z,7.33
2018-11-11T23:45:35.010Z,7.63
2018-11-11T23:48:04.296Z,8.13
2018-11-11T23:50:33.380Z,7.63
2018-11-11T23:53:02.557Z,8.20
2018-11-11T23:55:31.691Z,8.30
2018-11-11T23:58:01.568Z,7.70
